Terminal Aerodrome Forecast
Issued by NWS North Platte, NE

Home | Current Version | Previous Version | Text Only | Print | Product List | Glossary On
Versions: 1 2 3 4 5 6 7 8 9 10 11 12
035
FTUS43 KLBF 101731
TAFLBF
TAF
KLBF 101731Z 1018/1118 15011KT P6SM BKN015 OVC100
     FM102200 17008KT P6SM OVC015
     FM110400 18006KT P6SM OVC100
     FM110800 22004KT P6SM OVC100 WS020/29035KT
     FM111200 34009KT P6SM BKN050=

USA.gov is the U.S. government's official web portal to all federal, state and local government web resources and services.